sensor_id;sensor_type;location;lat;lon;timestamp;pressure;altitude;pressure_sealevel;temperature;humidity
21988;BME280;11158;53.404;-1.510;2023-02-24T00:02:00;100641.69;;;10.15;51.66
21988;BME280;11158;53.404;-1.510;2023-02-24T00:04:30;100626.69;;;9.83;52.40
21988;BME280;11158;53.404;-1.510;2023-02-24T00:06:56;100622.25;;;9.67;53.08
21988;BME280;11158;53.404;-1.510;2023-02-24T00:09:24;100629.22;;;9.04;55.49
21988;BME280;11158;53.404;-1.510;2023-02-24T00:12:05;100627.66;;;9.42;55.38
21988;BME280;11158;53.404;-1.510;2023-02-24T00:14:36;100612.31;;;10.15;52.88
21988;BME280;11158;53.404;-1.510;2023-02-24T00:17:03;100611.41;;;10.23;52.84
21988;BME280;11158;53.404;-1.510;2023-02-24T00:19:32;100605.91;;;10.24;51.87
21988;BME280;11158;53.404;-1.510;2023-02-24T00:22:07;100604.16;;;9.30;55.08
21988;BME280;11158;53.404;-1.510;2023-02-24T00:24:33;100601.47;;;9.38;55.73
21988;BME280;11158;53.404;-1.510;2023-02-24T00:27:01;100588.81;;;10.11;53.68
21988;BME280;11158;53.404;-1.510;2023-02-24T00:29:34;100594.63;;;9.83;54.63
21988;BME280;11158;53.404;-1.510;2023-02-24T00:32:04;100593.53;;;9.69;54.82
21988;BME280;11158;53.404;-1.510;2023-02-24T00:34:34;100582.91;;;9.92;54.62
21988;BME280;11158;53.404;-1.510;2023-02-24T00:37:01;100571.75;;;10.12;54.65
21988;BME280;11158;53.404;-1.510;2023-02-24T00:39:28;100566.13;;;10.38;53.56
21988;BME280;11158;53.404;-1.510;2023-02-24T00:41:59;100568.69;;;10.23;53.51
21988;BME280;11158;53.404;-1.510;2023-02-24T00:44:31;100564.25;;;10.38;53.63
21988;BME280;11158;53.404;-1.510;2023-02-24T00:46:58;100568.66;;;10.31;54.17
21988;BME280;11158;53.404;-1.510;2023-02-24T00:49:28;100557.00;;;10.24;53.62
21988;BME280;11158;53.404;-1.510;2023-02-24T00:51:54;100555.16;;;10.24;54.29
21988;BME280;11158;53.404;-1.510;2023-02-24T00:54:20;100540.03;;;10.78;53.19
21988;BME280;11158;53.404;-1.510;2023-02-24T00:56:47;100538.09;;;10.48;52.91
21988;BME280;11158;53.404;-1.510;2023-02-24T00:59:16;100537.22;;;9.56;56.21
21988;BME280;11158;53.404;-1.510;2023-02-24T01:01:46;100518.16;;;10.13;54.33
21988;BME280;11158;53.404;-1.510;2023-02-24T01:04:15;100508.84;;;10.09;54.13
21988;BME280;11158;53.404;-1.510;2023-02-24T01:06:44;100499.69;;;10.50;53.92
21988;BME280;11158;53.404;-1.510;2023-02-24T01:09:12;100502.88;;;10.68;53.29
21988;BME280;11158;53.404;-1.510;2023-02-24T01:11:39;100504.44;;;10.77;53.03
21988;BME280;11158;53.404;-1.510;2023-02-24T01:14:26;100497.91;;;10.80;52.73
21988;BME280;11158;53.404;-1.510;2023-02-24T01:16:53;100497.91;;;10.42;54.09
21988;BME280;11158;53.404;-1.510;2023-02-24T01:19:27;100494.50;;;10.86;53.05
21988;BME280;11158;53.404;-1.510;2023-02-24T01:22:00;100482.81;;;10.26;54.28
21988;BME280;11158;53.404;-1.510;2023-02-24T01:24:28;100485.47;;;10.34;54.43
21988;BME280;11158;53.404;-1.510;2023-02-24T01:26:55;100483.69;;;10.26;55.10
21988;BME280;11158;53.404;-1.510;2023-02-24T01:29:21;100478.88;;;10.60;54.04
21988;BME280;11158;53.404;-1.510;2023-02-24T01:31:48;100475.38;;;10.59;54.26
21988;BME280;11158;53.404;-1.510;2023-02-24T01:34:15;100478.00;;;10.06;56.18
21988;BME280;11158;53.404;-1.510;2023-02-24T01:36:42;100474.38;;;10.75;54.61
21988;BME280;11158;53.404;-1.510;2023-02-24T01:39:09;100471.06;;;10.58;54.84
21988;BME280;11158;53.404;-1.510;2023-02-24T01:41:43;100462.66;;;10.61;55.03
21988;BME280;11158;53.404;-1.510;2023-02-24T01:46:45;100451.09;;;10.08;56.87
21988;BME280;11158;53.404;-1.510;2023-02-24T01:49:15;100456.88;;;9.74;58.13
21988;BME280;11158;53.404;-1.510;2023-02-24T01:54:25;100445.81;;;9.54;59.15
21988;BME280;11158;53.404;-1.510;2023-02-24T01:56:53;100450.34;;;9.76;58.61
21988;BME280;11158;53.404;-1.510;2023-02-24T01:59:20;100443.09;;;10.08;57.35
21988;BME280;11158;53.404;-1.510;2023-02-24T02:01:48;100450.59;;;9.90;58.05
21988;BME280;11158;53.404;-1.510;2023-02-24T02:04:43;100455.97;;;9.58;58.66
21988;BME280;11158;53.404;-1.510;2023-02-24T02:07:13;100445.13;;;10.06;57.59
21988;BME280;11158;53.404;-1.510;2023-02-24T02:09:41;100446.59;;;11.06;55.16
21988;BME280;11158;53.404;-1.510;2023-02-24T02:12:09;100440.81;;;10.73;55.28
21988;BME280;11158;53.404;-1.510;2023-02-24T02:14:36;100451.22;;;10.38;56.12
21988;BME280;11158;53.404;-1.510;2023-02-24T02:17:05;100450.59;;;10.27;56.38
21988;BME280;11158;53.404;-1.510;2023-02-24T02:27:22;100428.72;;;10.32;55.89
21988;BME280;11158;53.404;-1.510;2023-02-24T02:35:54;100407.78;;;9.98;57.24
21988;BME280;11158;53.404;-1.510;2023-02-24T02:43:54;100389.75;;;10.00;57.68
21988;BME280;11158;53.404;-1.510;2023-02-24T02:49:04;100395.50;;;10.26;57.53
21988;BME280;11158;53.404;-1.510;2023-02-24T02:51:39;100388.81;;;10.60;55.99
21988;BME280;11158;53.404;-1.510;2023-02-24T02:54:16;100396.84;;;10.45;56.82
21988;BME280;11158;53.404;-1.510;2023-02-24T02:59:35;100385.22;;;11.34;53.61
21988;BME280;11158;53.404;-1.510;2023-02-24T03:02:03;100367.94;;;11.00;54.82
21988;BME280;11158;53.404;-1.510;2023-02-24T03:04:44;100380.94;;;11.03;54.69
21988;BME280;11158;53.404;-1.510;2023-02-24T03:07:14;100377.66;;;9.89;58.91
21988;BME280;11158;53.404;-1.510;2023-02-24T03:09:46;100381.22;;;9.81;59.42
21988;BME280;11158;53.404;-1.510;2023-02-24T03:12:17;100366.78;;;9.76;60.38
21988;BME280;11158;53.404;-1.510;2023-02-24T03:14:48;100363.88;;;10.00;59.59
21988;BME280;11158;53.404;-1.510;2023-02-24T03:17:21;100358.94;;;10.27;58.69
21988;BME280;11158;53.404;-1.510;2023-02-24T03:19:50;100357.75;;;9.92;59.81
21988;BME280;11158;53.404;-1.510;2023-02-24T03:22:35;100349.13;;;9.67;60.37
21988;BME280;11158;53.404;-1.510;2023-02-24T03:25:04;100338.72;;;9.57;61.06
21988;BME280;11158;53.404;-1.510;2023-02-24T03:27:41;100326.84;;;10.12;59.62
21988;BME280;11158;53.404;-1.510;2023-02-24T03:30:31;100326.63;;;9.84;60.08
21988;BME280;11158;53.404;-1.510;2023-02-24T03:33:25;100316.13;;;9.82;60.07
21988;BME280;11158;53.404;-1.510;2023-02-24T03:35:49;100315.69;;;9.94;60.17
21988;BME280;11158;53.404;-1.510;2023-02-24T03:38:18;100316.25;;;9.89;59.67
21988;BME280;11158;53.404;-1.510;2023-02-24T03:40:47;100303.47;;;9.23;62.40
21988;BME280;11158;53.404;-1.510;2023-02-24T03:45:51;100293.31;;;9.80;61.29
21988;BME280;11158;53.404;-1.510;2023-02-24T03:48:17;100288.28;;;9.62;61.52
21988;BME280;11158;53.404;-1.510;2023-02-24T03:50:44;100288.66;;;9.59;61.74
21988;BME280;11158;53.404;-1.510;2023-02-24T04:02:00;100289.63;;;9.96;61.04
21988;BME280;11158;53.404;-1.510;2023-02-24T04:07:12;100270.66;;;10.05;60.62
21988;BME280;11158;53.404;-1.510;2023-02-24T04:12:18;100275.47;;;10.25;60.19
21988;BME280;11158;53.404;-1.510;2023-02-24T04:14:57;100283.06;;;10.36;59.81
21988;BME280;11158;53.404;-1.510;2023-02-24T04:20:05;100270.63;;;10.29;60.00
21988;BME280;11158;53.404;-1.510;2023-02-24T04:22:44;100265.13;;;9.77;61.87
21988;BME280;11158;53.404;-1.510;2023-02-24T04:25:15;100258.34;;;10.34;60.60
21988;BME280;11158;53.404;-1.510;2023-02-24T04:27:42;100253.56;;;10.30;60.60
21988;BME280;11158;53.404;-1.510;2023-02-24T04:30:10;100257.78;;;9.79;62.21
21988;BME280;11158;53.404;-1.510;2023-02-24T04:32:37;100256.03;;;10.16;61.40
21988;BME280;11158;53.404;-1.510;2023-02-24T04:35:08;100258.63;;;9.95;61.79
21988;BME280;11158;53.404;-1.510;2023-02-24T04:37:37;100262.19;;;10.17;61.27
21988;BME280;11158;53.404;-1.510;2023-02-24T04:40:12;100253.63;;;10.21;60.74
21988;BME280;11158;53.404;-1.510;2023-02-24T04:42:41;100243.22;;;10.41;60.45
21988;BME280;11158;53.404;-1.510;2023-02-24T04:45:12;100239.84;;;10.18;60.53
21988;BME280;11158;53.404;-1.510;2023-02-24T04:47:41;100241.69;;;10.32;60.80
21988;BME280;11158;53.404;-1.510;2023-02-24T04:50:08;100238.06;;;10.25;60.89
21988;BME280;11158;53.404;-1.510;2023-02-24T04:52:36;100242.88;;;10.30;60.83
21988;BME280;11158;53.404;-1.510;2023-02-24T04:55:04;100245.91;;;10.78;59.48
21988;BME280;11158;53.404;-1.510;2023-02-24T04:57:35;100248.69;;;10.69;59.68
21988;BME280;11158;53.404;-1.510;2023-02-24T05:00:04;100241.69;;;10.32;60.79
21988;BME280;11158;53.404;-1.510;2023-02-24T05:02:44;100240.38;;;10.13;61.29
21988;BME280;11158;53.404;-1.510;2023-02-24T05:05:10;100234.00;;;10.44;60.61
21988;BME280;11158;53.404;-1.510;2023-02-24T05:07:36;100237.56;;;10.66;59.90
21988;BME280;11158;53.404;-1.510;2023-02-24T05:10:09;100236.88;;;10.42;61.59
21988;BME280;11158;53.404;-1.510;2023-02-24T05:12:35;100235.91;;;10.29;62.00
21988;BME280;11158;53.404;-1.510;2023-02-24T05:15:05;100224.44;;;10.35;61.87
21988;BME280;11158;53.404;-1.510;2023-02-24T05:17:32;100229.22;;;10.54;61.35
21988;BME280;11158;53.404;-1.510;2023-02-24T05:19:57;100228.72;;;10.29;61.84
21988;BME280;11158;53.404;-1.510;2023-02-24T05:22:42;100225.28;;;10.20;62.15
21988;BME280;11158;53.404;-1.510;2023-02-24T05:25:07;100220.22;;;10.40;61.55
21988;BME280;11158;53.404;-1.510;2023-02-24T05:27:33;100210.38;;;10.11;62.53
21988;BME280;11158;53.404;-1.510;2023-02-24T05:30:04;100211.38;;;10.10;62.58
21988;BME280;11158;53.404;-1.510;2023-02-24T05:32:35;100224.19;;;10.15;62.62
21988;BME280;11158;53.404;-1.510;2023-02-24T05:35:01;100220.56;;;10.22;62.50
21988;BME280;11158;53.404;-1.510;2023-02-24T05:37:26;100205.94;;;10.33;61.90
21988;BME280;11158;53.404;-1.510;2023-02-24T05:39:56;100216.22;;;10.21;62.32
21988;BME280;11158;53.404;-1.510;2023-02-24T05:42:25;100209.78;;;10.31;62.11
21988;BME280;11158;53.404;-1.510;2023-02-24T05:44:52;100213.41;;;10.38;61.66
21988;BME280;11158;53.404;-1.510;2023-02-24T05:47:18;100209.88;;;10.22;62.10
21988;BME280;11158;53.404;-1.510;2023-02-24T05:49:44;100216.78;;;10.46;61.51
21988;BME280;11158;53.404;-1.510;2023-02-24T05:52:12;100206.31;;;10.30;62.22
21988;BME280;11158;53.404;-1.510;2023-02-24T05:54:42;100205.38;;;10.38;61.98
21988;BME280;11158;53.404;-1.510;2023-02-24T05:57:11;100198.91;;;10.47;61.60
21988;BME280;11158;53.404;-1.510;2023-02-24T05:59:41;100195.06;;;10.20;62.65
21988;BME280;11158;53.404;-1.510;2023-02-24T06:02:11;100198.13;;;10.32;61.91
21988;BME280;11158;53.404;-1.510;2023-02-24T06:04:40;100191.94;;;10.67;60.42
21988;BME280;11158;53.404;-1.510;2023-02-24T06:07:18;100193.28;;;11.00;59.50
21988;BME280;11158;53.404;-1.510;2023-02-24T06:09:44;100193.00;;;11.16;59.00
21988;BME280;11158;53.404;-1.510;2023-02-24T06:12:12;100182.50;;;10.72;60.34
21988;BME280;11158;53.404;-1.510;2023-02-24T06:14:40;100183.28;;;10.87;59.79
21988;BME280;11158;53.404;-1.510;2023-02-24T06:17:06;100167.59;;;11.05;59.67
21988;BME280;11158;53.404;-1.510;2023-02-24T06:19:32;100175.19;;;10.80;59.84
21988;BME280;11158;53.404;-1.510;2023-02-24T06:21:59;100162.53;;;10.16;61.83
21988;BME280;11158;53.404;-1.510;2023-02-24T06:24:30;100150.66;;;10.34;61.36
21988;BME280;11158;53.404;-1.510;2023-02-24T06:26:57;100155.53;;;10.45;61.26
21988;BME280;11158;53.404;-1.510;2023-02-24T06:29:35;100149.16;;;10.89;59.83
21988;BME280;11158;53.404;-1.510;2023-02-24T06:32:02;100153.84;;;10.87;59.52
21988;BME280;11158;53.404;-1.510;2023-02-24T06:34:35;100145.25;;;10.92;59.42
21988;BME280;11158;53.404;-1.510;2023-02-24T06:37:02;100158.28;;;10.37;61.22
21988;BME280;11158;53.404;-1.510;2023-02-24T06:39:29;100151.31;;;10.36;61.19
21988;BME280;11158;53.404;-1.510;2023-02-24T06:41:57;100155.66;;;10.58;60.70
21988;BME280;11158;53.404;-1.510;2023-02-24T06:44:32;100157.53;;;10.43;60.92
21988;BME280;11158;53.404;-1.510;2023-02-24T06:46:58;100160.16;;;10.58;60.26
21988;BME280;11158;53.404;-1.510;2023-02-24T06:49:24;100159.22;;;10.65;59.99
21988;BME280;11158;53.404;-1.510;2023-02-24T06:51:51;100165.81;;;10.69;59.84
21988;BME280;11158;53.404;-1.510;2023-02-24T06:54:17;100161.44;;;10.83;59.32
21988;BME280;11158;53.404;-1.510;2023-02-24T06:56:43;100172.19;;;10.68;59.04
21988;BME280;11158;53.404;-1.510;2023-02-24T06:59:10;100166.84;;;10.90;58.66
21988;BME280;11158;53.404;-1.510;2023-02-24T07:01:40;100170.50;;;11.10;57.94
21988;BME280;11158;53.404;-1.510;2023-02-24T07:04:15;100166.03;;;11.18;57.84
21988;BME280;11158;53.404;-1.510;2023-02-24T07:06:43;100167.84;;;11.67;56.08
21988;BME280;11158;53.404;-1.510;2023-02-24T07:09:12;100166.28;;;11.51;56.57
21988;BME280;11158;53.404;-1.510;2023-02-24T07:11:43;100171.25;;;11.26;57.81
21988;BME280;11158;53.404;-1.510;2023-02-24T07:14:17;100172.06;;;11.26;57.16
21988;BME280;11158;53.404;-1.510;2023-02-24T07:16:43;100168.88;;;11.09;57.16
21988;BME280;11158;53.404;-1.510;2023-02-24T07:19:14;100177.53;;;11.11;58.05
21988;BME280;11158;53.404;-1.510;2023-02-24T07:21:42;100186.16;;;11.70;56.05
21988;BME280;11158;53.404;-1.510;2023-02-24T07:24:13;100183.88;;;11.32;57.15
21988;BME280;11158;53.404;-1.510;2023-02-24T07:26:40;100194.28;;;11.48;57.25
21988;BME280;11158;53.404;-1.510;2023-02-24T07:29:10;100187.16;;;11.62;56.96
21988;BME280;11158;53.404;-1.510;2023-02-24T07:31:37;100197.94;;;11.41;57.18
21988;BME280;11158;53.404;-1.510;2023-02-24T07:34:03;100199.41;;;11.43;57.29
21988;BME280;11158;53.404;-1.510;2023-02-24T07:36:29;100196.28;;;11.74;56.53
21988;BME280;11158;53.404;-1.510;2023-02-24T07:38:57;100199.72;;;11.90;56.43
21988;BME280;11158;53.404;-1.510;2023-02-24T07:41:25;100211.09;;;11.99;55.36
21988;BME280;11158;53.404;-1.510;2023-02-24T07:43:53;100202.16;;;12.26;54.60
21988;BME280;11158;53.404;-1.510;2023-02-24T07:46:21;100202.84;;;12.42;54.38
21988;BME280;11158;53.404;-1.510;2023-02-24T07:48:53;100195.72;;;12.14;54.73
21988;BME280;11158;53.404;-1.510;2023-02-24T07:51:22;100204.59;;;11.80;56.13
21988;BME280;11158;53.404;-1.510;2023-02-24T07:53:50;100204.56;;;12.08;55.44
21988;BME280;11158;53.404;-1.510;2023-02-24T07:56:18;100210.38;;;12.25;55.35
21988;BME280;11158;53.404;-1.510;2023-02-24T07:58:46;100205.50;;;12.48;54.22
21988;BME280;11158;53.404;-1.510;2023-02-24T08:01:16;100206.41;;;12.62;53.78
21988;BME280;11158;53.404;-1.510;2023-02-24T08:04:07;100211.19;;;12.19;54.70
21988;BME280;11158;53.404;-1.510;2023-02-24T08:06:40;100212.97;;;12.60;54.51
21988;BME280;11158;53.404;-1.510;2023-02-24T08:09:14;100217.97;;;12.69;54.14
21988;BME280;11158;53.404;-1.510;2023-02-24T08:11:54;100211.44;;;13.25;52.58
21988;BME280;11158;53.404;-1.510;2023-02-24T08:14:28;100211.19;;;12.19;54.82
21988;BME280;11158;53.404;-1.510;2023-02-24T08:17:10;100212.94;;;12.40;54.70
21988;BME280;11158;53.404;-1.510;2023-02-24T08:19:36;100210.25;;;12.40;54.95
21988;BME280;11158;53.404;-1.510;2023-02-24T08:22:06;100209.06;;;12.55;54.69
21988;BME280;11158;53.404;-1.510;2023-02-24T08:24:58;100206.31;;;12.35;55.17
21988;BME280;11158;53.404;-1.510;2023-02-24T08:27:32;100208.63;;;12.52;54.48
21988;BME280;11158;53.404;-1.510;2023-02-24T08:29:59;100216.69;;;12.58;54.18
21988;BME280;11158;53.404;-1.510;2023-02-24T08:32:55;100215.56;;;13.14;53.65
21988;BME280;11158;53.404;-1.510;2023-02-24T08:35:29;100207.25;;;13.89;51.18
21988;BME280;11158;53.404;-1.510;2023-02-24T08:38:06;100203.63;;;14.22;50.33
21988;BME280;11158;53.404;-1.510;2023-02-24T08:40:37;100207.94;;;13.51;51.58
21988;BME280;11158;53.404;-1.510;2023-02-24T08:43:28;100206.88;;;13.79;51.82
21988;BME280;11158;53.404;-1.510;2023-02-24T08:48:40;100207.25;;;12.83;53.33
21988;BME280;11158;53.404;-1.510;2023-02-24T08:51:17;100205.66;;;13.28;52.49
21988;BME280;11158;53.404;-1.510;2023-02-24T08:53:50;100213.25;;;12.91;52.96
21988;BME280;11158;53.404;-1.510;2023-02-24T08:56:22;100201.72;;;13.71;51.44
21988;BME280;11158;53.404;-1.510;2023-02-24T08:58:53;100195.44;;;14.49;48.98
21988;BME280;11158;53.404;-1.510;2023-02-24T09:01:27;100202.53;;;13.71;50.57
21988;BME280;11158;53.404;-1.510;2023-02-24T09:04:00;100196.97;;;13.79;51.17
21988;BME280;11158;53.404;-1.510;2023-02-24T09:06:55;100203.41;;;13.38;51.53
21988;BME280;11158;53.404;-1.510;2023-02-24T09:09:23;100200.91;;;13.57;51.20
21988;BME280;11158;53.404;-1.510;2023-02-24T09:11:57;100185.88;;;13.49;51.21
21988;BME280;11158;53.404;-1.510;2023-02-24T09:14:33;100192.06;;;13.43;51.43
21988;BME280;11158;53.404;-1.510;2023-02-24T09:17:05;100197.38;;;12.90;53.23
21988;BME280;11158;53.404;-1.510;2023-02-24T09:19:44;100188.91;;;12.86;53.38
21988;BME280;11158;53.404;-1.510;2023-02-24T09:22:19;100192.00;;;12.83;53.36
21988;BME280;11158;53.404;-1.510;2023-02-24T09:25:04;100192.47;;;13.40;51.80
21988;BME280;11158;53.404;-1.510;2023-02-24T09:27:46;100187.06;;;13.47;51.47
21988;BME280;11158;53.404;-1.510;2023-02-24T09:30:25;100186.50;;;13.38;51.84
21988;BME280;11158;53.404;-1.510;2023-02-24T09:33:08;100187.69;;;13.49;52.13
21988;BME280;11158;53.404;-1.510;2023-02-24T09:35:50;100181.66;;;13.73;50.63
21988;BME280;11158;53.404;-1.510;2023-02-24T09:38:21;100195.53;;;13.24;51.67
21988;BME280;11158;53.404;-1.510;2023-02-24T09:41:22;100190.81;;;13.52;50.98
21988;BME280;11158;53.404;-1.510;2023-02-24T09:44:30;100184.78;;;13.77;50.38
21988;BME280;11158;53.404;-1.510;2023-02-24T09:47:04;100196.97;;;13.06;52.10
21988;BME280;11158;53.404;-1.510;2023-02-24T09:52:17;100228.03;;;9.15;67.77
21988;BME280;11158;53.404;-1.510;2023-02-24T09:54:48;100226.06;;;9.09;70.18
21988;BME280;11158;53.404;-1.510;2023-02-24T09:57:44;100240.75;;;9.95;68.65
21988;BME280;11158;53.404;-1.510;2023-02-24T10:00:35;100238.91;;;9.96;69.44
21988;BME280;11158;53.404;-1.510;2023-02-24T10:03:24;100244.72;;;8.86;71.99
21988;BME280;11158;53.404;-1.510;2023-02-24T10:06:12;100244.69;;;9.70;68.81
21988;BME280;11158;53.404;-1.510;2023-02-24T10:08:43;100240.72;;;10.55;66.31
21988;BME280;11158;53.404;-1.510;2023-02-24T10:11:11;100242.38;;;10.26;67.19
21988;BME280;11158;53.404;-1.510;2023-02-24T10:13:48;100251.88;;;9.84;66.67
21988;BME280;11158;53.404;-1.510;2023-02-24T10:16:18;100242.22;;;9.98;66.34
21988;BME280;11158;53.404;-1.510;2023-02-24T10:18:54;100251.50;;;10.17;65.72
21988;BME280;11158;53.404;-1.510;2023-02-24T10:30:02;100246.84;;;10.34;62.31
21988;BME280;11158;53.404;-1.510;2023-02-24T10:35:18;100238.78;;;9.44;64.28
21988;BME280;11158;53.404;-1.510;2023-02-24T10:37:44;100237.88;;;9.82;63.68
21988;BME280;11158;53.404;-1.510;2023-02-24T10:40:14;100235.69;;;10.30;62.31
21988;BME280;11158;53.404;-1.510;2023-02-24T10:43:02;100240.44;;;11.07;58.30
21988;BME280;11158;53.404;-1.510;2023-02-24T10:45:29;100244.44;;;10.24;60.99
21988;BME280;11158;53.404;-1.510;2023-02-24T10:47:58;100242.22;;;11.22;57.63
21988;BME280;11158;53.404;-1.510;2023-02-24T10:50:28;100246.25;;;10.23;58.06
21988;BME280;11158;53.404;-1.510;2023-02-24T10:53:14;100248.41;;;11.22;57.23
21988;BME280;11158;53.404;-1.510;2023-02-24T10:55:57;100249.16;;;10.95;57.76
21988;BME280;11158;53.404;-1.510;2023-02-24T10:58:42;100249.38;;;11.64;55.25
21988;BME280;11158;53.404;-1.510;2023-02-24T11:01:30;100259.81;;;12.15;54.06
21988;BME280;11158;53.404;-1.510;2023-02-24T11:04:14;100260.97;;;12.00;55.07
21988;BME280;11158;53.404;-1.510;2023-02-24T11:07:03;100254.22;;;11.04;57.55
21988;BME280;11158;53.404;-1.510;2023-02-24T11:09:38;100252.00;;;12.14;54.96
21988;BME280;11158;53.404;-1.510;2023-02-24T11:12:20;100244.88;;;13.23;50.74
21988;BME280;11158;53.404;-1.510;2023-02-24T11:15:20;100243.69;;;12.50;51.49
21988;BME280;11158;53.404;-1.510;2023-02-24T11:18:05;100259.72;;;12.02;52.23
21988;BME280;11158;53.404;-1.510;2023-02-24T11:20:45;100262.22;;;11.26;53.44
21988;BME280;11158;53.404;-1.510;2023-02-24T11:23:21;100253.41;;;11.53;51.34
21988;BME280;11158;53.404;-1.510;2023-02-24T11:25:51;100257.28;;;11.23;51.14
21988;BME280;11158;53.404;-1.510;2023-02-24T11:34:05;100244.53;;;10.16;51.46
21988;BME280;11158;53.404;-1.510;2023-02-24T11:37:00;100251.19;;;12.20;47.92
21988;BME280;11158;53.404;-1.510;2023-02-24T11:39:49;100247.78;;;12.05;47.52
21988;BME280;11158;53.404;-1.510;2023-02-24T11:42:30;100246.56;;;12.01;47.14
21988;BME280;11158;53.404;-1.510;2023-02-24T11:47:37;100244.72;;;11.51;46.76
21988;BME280;11158;53.404;-1.510;2023-02-24T11:50:28;100226.44;;;12.73;44.49
21988;BME280;11158;53.404;-1.510;2023-02-24T11:52:59;100219.09;;;12.33;44.79
21988;BME280;11158;53.404;-1.510;2023-02-24T11:55:32;100231.31;;;11.73;46.17
21988;BME280;11158;53.404;-1.510;2023-02-24T11:58:06;100231.78;;;12.18;45.16
21988;BME280;11158;53.404;-1.510;2023-02-24T12:00:40;100222.22;;;13.38;42.57
21988;BME280;11158;53.404;-1.510;2023-02-24T12:03:22;100231.69;;;12.40;45.20
21988;BME280;11158;53.404;-1.510;2023-02-24T12:05:53;100223.09;;;12.57;44.66
21988;BME280;11158;53.404;-1.510;2023-02-24T12:08:28;100228.22;;;12.52;44.51
21988;BME280;11158;53.404;-1.510;2023-02-24T12:11:12;100225.75;;;12.09;44.69
21988;BME280;11158;53.404;-1.510;2023-02-24T12:13:54;100234.13;;;11.93;44.44
21988;BME280;11158;53.404;-1.510;2023-02-24T12:16:36;100228.16;;;12.32;43.93
21988;BME280;11158;53.404;-1.510;2023-02-24T12:19:14;100244.78;;;11.30;46.64
21988;BME280;11158;53.404;-1.510;2023-02-24T12:21:48;100235.47;;;11.54;44.92
21988;BME280;11158;53.404;-1.510;2023-02-24T12:24:15;100238.16;;;11.82;44.82
21988;BME280;11158;53.404;-1.510;2023-02-24T12:27:13;100233.38;;;11.49;45.13
21988;BME280;11158;53.404;-1.510;2023-02-24T12:29:49;100228.84;;;12.54;43.95
21988;BME280;11158;53.404;-1.510;2023-02-24T12:32:47;100234.97;;;10.94;46.85
21988;BME280;11158;53.404;-1.510;2023-02-24T12:40:24;100223.56;;;11.28;45.12
21988;BME280;11158;53.404;-1.510;2023-02-24T12:43:03;100239.41;;;11.80;44.40
21988;BME280;11158;53.404;-1.510;2023-02-24T12:48:55;100228.09;;;12.19;41.97
21988;BME280;11158;53.404;-1.510;2023-02-24T12:54:01;100218.34;;;12.60;42.04
21988;BME280;11158;53.404;-1.510;2023-02-24T12:59:05;100215.09;;;11.25;44.76
21988;BME280;11158;53.404;-1.510;2023-02-24T13:01:41;100223.91;;;12.03;43.53
21988;BME280;11158;53.404;-1.510;2023-02-24T13:06:59;100210.00;;;13.56;40.50
21988;BME280;11158;53.404;-1.510;2023-02-24T13:12:17;100204.38;;;13.84;39.78
21988;BME280;11158;53.404;-1.510;2023-02-24T13:14:46;100198.38;;;14.40;39.24
21988;BME280;11158;53.404;-1.510;2023-02-24T13:19:41;100193.88;;;13.16;41.26
21988;BME280;11158;53.404;-1.510;2023-02-24T13:24:34;100190.00;;;14.17;38.99
21988;BME280;11158;53.404;-1.510;2023-02-24T13:29:46;100183.13;;;13.03;40.53
21988;BME280;11158;53.404;-1.510;2023-02-24T13:32:27;100188.13;;;13.32;39.11
21988;BME280;11158;53.404;-1.510;2023-02-24T13:34:55;100195.34;;;12.24;42.29
21988;BME280;11158;53.404;-1.510;2023-02-24T13:37:29;100196.75;;;12.88;39.96
21988;BME280;11158;53.404;-1.510;2023-02-24T13:39:55;100201.41;;;12.52;40.00
21988;BME280;11158;53.404;-1.510;2023-02-24T13:42:26;100206.66;;;13.07;39.44
21988;BME280;11158;53.404;-1.510;2023-02-24T13:50:16;100196.50;;;13.89;37.84
21988;BME280;11158;53.404;-1.510;2023-02-24T14:01:18;100189.56;;;13.48;38.48
21988;BME280;11158;53.404;-1.510;2023-02-24T14:04:15;100192.84;;;12.90;41.21
21988;BME280;11158;53.404;-1.510;2023-02-24T14:06:47;100198.34;;;12.01;43.16
21988;BME280;11158;53.404;-1.510;2023-02-24T14:09:17;100194.63;;;11.39;44.64
21988;BME280;11158;53.404;-1.510;2023-02-24T14:11:49;100201.19;;;11.64;44.68
21988;BME280;11158;53.404;-1.510;2023-02-24T14:14:17;100198.59;;;11.21;45.18
21988;BME280;11158;53.404;-1.510;2023-02-24T14:16:43;100196.31;;;11.18;45.95
21988;BME280;11158;53.404;-1.510;2023-02-24T14:19:14;100200.41;;;11.70;44.73
21988;BME280;11158;53.404;-1.510;2023-02-24T14:21:47;100205.88;;;11.90;44.13
21988;BME280;11158;53.404;-1.510;2023-02-24T14:24:13;100200.81;;;11.39;45.93
21988;BME280;11158;53.404;-1.510;2023-02-24T14:26:45;100206.31;;;10.15;49.20
21988;BME280;11158;53.404;-1.510;2023-02-24T14:29:19;100226.03;;;10.29;49.57
21988;BME280;11158;53.404;-1.510;2023-02-24T14:31:50;100224.06;;;11.67;45.38
21988;BME280;11158;53.404;-1.510;2023-02-24T14:34:23;100220.59;;;11.73;43.74
21988;BME280;11158;53.404;-1.510;2023-02-24T14:36:52;100207.06;;;12.23;42.56
21988;BME280;11158;53.404;-1.510;2023-02-24T14:41:47;100210.53;;;12.78;42.07
21988;BME280;11158;53.404;-1.510;2023-02-24T14:44:27;100218.69;;;11.67;43.87
21988;BME280;11158;53.404;-1.510;2023-02-24T14:46:55;100219.53;;;11.18;45.14
21988;BME280;11158;53.404;-1.510;2023-02-24T14:49:26;100234.41;;;10.41;46.24
21988;BME280;11158;53.404;-1.510;2023-02-24T14:54:56;100227.44;;;11.26;44.68
21988;BME280;11158;53.404;-1.510;2023-02-24T14:57:28;100212.63;;;12.69;41.60
21988;BME280;11158;53.404;-1.510;2023-02-24T15:00:03;100211.31;;;12.04;41.96
21988;BME280;11158;53.404;-1.510;2023-02-24T15:02:39;100210.53;;;12.58;40.75
21988;BME280;11158;53.404;-1.510;2023-02-24T15:05:07;100223.66;;;11.70;42.56
21988;BME280;11158;53.404;-1.510;2023-02-24T15:07:34;100217.97;;;11.86;42.41
21988;BME280;11158;53.404;-1.510;2023-02-24T15:10:02;100217.66;;;11.11;43.94